sensor_id;sensor_type;location;lat;lon;timestamp;temperature;humidity
8965;DHT22;4517;49.020;12.066;2023-05-08T00:00:20;11.80;99.90
8965;DHT22;4517;49.020;12.066;2023-05-08T00:02:46;11.80;99.90
8965;DHT22;4517;49.020;12.066;2023-05-08T00:05:12;11.70;99.90
8965;DHT22;4517;49.020;12.066;2023-05-08T00:07:38;11.70;99.90
8965;DHT22;4517;49.020;12.066;2023-05-08T00:10:05;11.50;99.90
8965;DHT22;4517;49.020;12.066;2023-05-08T00:12:31;11.40;99.90
8965;DHT22;4517;49.020;12.066;2023-05-08T00:14:56;11.40;99.90
8965;DHT22;4517;49.020;12.066;2023-05-08T00:17:22;11.40;99.90
8965;DHT22;4517;49.020;12.066;2023-05-08T00:19:48;11.30;99.90
8965;DHT22;4517;49.020;12.066;2023-05-08T00:22:13;11.30;99.90
8965;DHT22;4517;49.020;12.066;2023-05-08T00:24:39;11.30;99.90
8965;DHT22;4517;49.020;12.066;2023-05-08T00:27:05;11.30;99.90
8965;DHT22;4517;49.020;12.066;2023-05-08T00:29:32;11.30;99.90
8965;DHT22;4517;49.020;12.066;2023-05-08T00:31:58;11.20;99.90
8965;DHT22;4517;49.020;12.066;2023-05-08T00:34:24;11.20;99.90
8965;DHT22;4517;49.020;12.066;2023-05-08T00:36:50;11.20;99.90
8965;DHT22;4517;49.020;12.066;2023-05-08T00:39:16;11.10;99.90
8965;DHT22;4517;49.020;12.066;2023-05-08T00:41:41;11.00;99.90
8965;DHT22;4517;49.020;12.066;2023-05-08T00:44:07;10.90;99.90
8965;DHT22;4517;49.020;12.066;2023-05-08T00:46:33;10.90;99.90
8965;DHT22;4517;49.020;12.066;2023-05-08T00:48:59;10.90;99.90
8965;DHT22;4517;49.020;12.066;2023-05-08T00:51:25;10.90;99.90
8965;DHT22;4517;49.020;12.066;2023-05-08T00:53:52;10.80;99.90
8965;DHT22;4517;49.020;12.066;2023-05-08T00:56:19;10.90;99.90
8965;DHT22;4517;49.020;12.066;2023-05-08T00:58:47;10.70;99.90
8965;DHT22;4517;49.020;12.066;2023-05-08T01:01:13;10.80;99.90
8965;DHT22;4517;49.020;12.066;2023-05-08T01:03:38;10.70;99.90
8965;DHT22;4517;49.020;12.066;2023-05-08T01:06:05;10.60;99.90
8965;DHT22;4517;49.020;12.066;2023-05-08T01:08:31;10.60;99.90
8965;DHT22;4517;49.020;12.066;2023-05-08T01:14:18;10.50;99.90
8965;DHT22;4517;49.020;12.066;2023-05-08T01:22:37;10.50;99.90
8965;DHT22;4517;49.020;12.066;2023-05-08T01:33:46;10.30;99.90
8965;DHT22;4517;49.020;12.066;2023-05-08T01:39:21;10.30;99.90
8965;DHT22;4517;49.020;12.066;2023-05-08T01:42:02;10.10;99.90
8965;DHT22;4517;49.020;12.066;2023-05-08T01:44:36;10.10;99.90
8965;DHT22;4517;49.020;12.066;2023-05-08T01:47:06;10.10;99.90
8965;DHT22;4517;49.020;12.066;2023-05-08T01:50:05;10.10;99.90
8965;DHT22;4517;49.020;12.066;2023-05-08T01:52:44;10.10;99.90
8965;DHT22;4517;49.020;12.066;2023-05-08T01:55:19;10.10;99.90
8965;DHT22;4517;49.020;12.066;2023-05-08T01:57:48;10.10;99.90
8965;DHT22;4517;49.020;12.066;2023-05-08T02:00:18;10.00;99.90
8965;DHT22;4517;49.020;12.066;2023-05-08T02:02:47;9.90;99.90
8965;DHT22;4517;49.020;12.066;2023-05-08T02:05:13;9.80;99.90
8965;DHT22;4517;49.020;12.066;2023-05-08T02:07:40;9.80;99.90
8965;DHT22;4517;49.020;12.066;2023-05-08T02:10:08;9.70;99.90
8965;DHT22;4517;49.020;12.066;2023-05-08T02:12:36;9.60;99.90
8965;DHT22;4517;49.020;12.066;2023-05-08T02:15:03;9.60;99.90
8965;DHT22;4517;49.020;12.066;2023-05-08T02:17:31;9.60;99.90
8965;DHT22;4517;49.020;12.066;2023-05-08T02:19:58;9.60;99.90
8965;DHT22;4517;49.020;12.066;2023-05-08T02:22:27;9.80;99.90
8965;DHT22;4517;49.020;12.066;2023-05-08T02:24:53;9.80;99.90
8965;DHT22;4517;49.020;12.066;2023-05-08T02:27:25;9.80;99.90
8965;DHT22;4517;49.020;12.066;2023-05-08T02:29:52;9.90;99.90
8965;DHT22;4517;49.020;12.066;2023-05-08T02:32:19;9.90;99.90
8965;DHT22;4517;49.020;12.066;2023-05-08T02:34:48;9.70;99.90
8965;DHT22;4517;49.020;12.066;2023-05-08T02:37:14;9.70;99.90
8965;DHT22;4517;49.020;12.066;2023-05-08T02:39:42;9.60;99.90
8965;DHT22;4517;49.020;12.066;2023-05-08T02:42:08;9.50;99.90
8965;DHT22;4517;49.020;12.066;2023-05-08T02:44:34;9.50;99.90
8965;DHT22;4517;49.020;12.066;2023-05-08T02:47:13;9.50;99.90
8965;DHT22;4517;49.020;12.066;2023-05-08T02:49:50;9.40;99.90
8965;DHT22;4517;49.020;12.066;2023-05-08T02:52:34;9.40;99.90
8965;DHT22;4517;49.020;12.066;2023-05-08T02:55:12;9.40;99.90
8965;DHT22;4517;49.020;12.066;2023-05-08T02:57:49;9.40;99.90
8965;DHT22;4517;49.020;12.066;2023-05-08T03:00:25;9.40;99.90
8965;DHT22;4517;49.020;12.066;2023-05-08T03:03:00;9.20;99.90
8965;DHT22;4517;49.020;12.066;2023-05-08T03:05:32;9.20;99.90
8965;DHT22;4517;49.020;12.066;2023-05-08T03:08:02;9.40;99.90
8965;DHT22;4517;49.020;12.066;2023-05-08T03:10:32;9.30;99.90
8965;DHT22;4517;49.020;12.066;2023-05-08T03:13:02;9.30;99.90
8965;DHT22;4517;49.020;12.066;2023-05-08T03:15:44;9.10;99.90
8965;DHT22;4517;49.020;12.066;2023-05-08T03:18:14;9.10;99.90
8965;DHT22;4517;49.020;12.066;2023-05-08T03:20:44;9.10;99.90
8965;DHT22;4517;49.020;12.066;2023-05-08T03:23:13;9.10;99.90
8965;DHT22;4517;49.020;12.066;2023-05-08T03:25:43;9.10;99.90
8965;DHT22;4517;49.020;12.066;2023-05-08T03:28:09;9.10;99.90
8965;DHT22;4517;49.020;12.066;2023-05-08T03:30:36;9.10;99.90
8965;DHT22;4517;49.020;12.066;2023-05-08T03:33:06;9.00;99.90
8965;DHT22;4517;49.020;12.066;2023-05-08T03:35:37;9.00;99.90
8965;DHT22;4517;49.020;12.066;2023-05-08T03:38:04;8.90;99.90
8965;DHT22;4517;49.020;12.066;2023-05-08T03:40:30;9.00;99.90
8965;DHT22;4517;49.020;12.066;2023-05-08T03:42:56;9.10;99.90
8965;DHT22;4517;49.020;12.066;2023-05-08T03:45:23;9.20;99.90
8965;DHT22;4517;49.020;12.066;2023-05-08T03:47:50;9.30;99.90
8965;DHT22;4517;49.020;12.066;2023-05-08T03:50:18;9.30;99.90
8965;DHT22;4517;49.020;12.066;2023-05-08T03:52:43;9.30;99.90
8965;DHT22;4517;49.020;12.066;2023-05-08T03:55:10;9.50;99.90
8965;DHT22;4517;49.020;12.066;2023-05-08T03:57:49;9.70;99.90
8965;DHT22;4517;49.020;12.066;2023-05-08T04:03:26;10.10;99.90
8965;DHT22;4517;49.020;12.066;2023-05-08T04:06:30;10.10;99.90
8965;DHT22;4517;49.020;12.066;2023-05-08T04:11:55;10.40;99.90
8965;DHT22;4517;49.020;12.066;2023-05-08T04:14:26;10.40;99.90
8965;DHT22;4517;49.020;12.066;2023-05-08T04:17:00;10.30;99.90
8965;DHT22;4517;49.020;12.066;2023-05-08T04:19:29;10.20;99.90
8965;DHT22;4517;49.020;12.066;2023-05-08T04:22:05;10.10;99.90
8965;DHT22;4517;49.020;12.066;2023-05-08T04:24:34;10.00;99.90
8965;DHT22;4517;49.020;12.066;2023-05-08T04:27:02;10.00;99.90
8965;DHT22;4517;49.020;12.066;2023-05-08T04:29:28;10.00;99.90
8965;DHT22;4517;49.020;12.066;2023-05-08T04:31:55;10.00;99.90
8965;DHT22;4517;49.020;12.066;2023-05-08T04:34:22;9.90;99.90
8965;DHT22;4517;49.020;12.066;2023-05-08T04:36:47;9.90;99.90
8965;DHT22;4517;49.020;12.066;2023-05-08T04:39:13;9.90;99.90
8965;DHT22;4517;49.020;12.066;2023-05-08T04:41:39;10.00;99.90
8965;DHT22;4517;49.020;12.066;2023-05-08T04:44:04;10.10;99.90
8965;DHT22;4517;49.020;12.066;2023-05-08T04:46:30;10.10;99.90
8965;DHT22;4517;49.020;12.066;2023-05-08T04:48:56;10.20;99.90
8965;DHT22;4517;49.020;12.066;2023-05-08T04:51:21;10.30;99.90
8965;DHT22;4517;49.020;12.066;2023-05-08T04:53:47;10.50;99.90
8965;DHT22;4517;49.020;12.066;2023-05-08T04:56:12;10.60;99.90
8965;DHT22;4517;49.020;12.066;2023-05-08T04:58:38;10.80;99.90
8965;DHT22;4517;49.020;12.066;2023-05-08T05:01:04;11.00;99.90
8965;DHT22;4517;49.020;12.066;2023-05-08T05:03:30;11.30;99.90
8965;DHT22;4517;49.020;12.066;2023-05-08T05:06:00;11.70;99.90
8965;DHT22;4517;49.020;12.066;2023-05-08T05:08:26;12.20;99.90
8965;DHT22;4517;49.020;12.066;2023-05-08T05:10:51;13.10;99.90
8965;DHT22;4517;49.020;12.066;2023-05-08T05:13:18;13.70;99.90
8965;DHT22;4517;49.020;12.066;2023-05-08T05:15:44;14.80;99.90
8965;DHT22;4517;49.020;12.066;2023-05-08T05:18:10;15.40;99.90
8965;DHT22;4517;49.020;12.066;2023-05-08T05:20:36;15.80;99.90
8965;DHT22;4517;49.020;12.066;2023-05-08T05:23:02;15.20;99.90
8965;DHT22;4517;49.020;12.066;2023-05-08T05:25:28;16.20;99.90
8965;DHT22;4517;49.020;12.066;2023-05-08T05:27:53;16.20;99.90
8965;DHT22;4517;49.020;12.066;2023-05-08T05:30:19;15.50;99.90
8965;DHT22;4517;49.020;12.066;2023-05-08T05:32:45;15.20;99.90
8965;DHT22;4517;49.020;12.066;2023-05-08T05:35:10;15.20;99.90
8965;DHT22;4517;49.020;12.066;2023-05-08T05:37:36;14.70;99.90
8965;DHT22;4517;49.020;12.066;2023-05-08T05:40:02;15.70;99.90
8965;DHT22;4517;49.020;12.066;2023-05-08T05:42:28;16.30;99.90
8965;DHT22;4517;49.020;12.066;2023-05-08T05:44:53;16.10;99.90
8965;DHT22;4517;49.020;12.066;2023-05-08T05:47:21;15.60;99.90
8965;DHT22;4517;49.020;12.066;2023-05-08T05:49:46;15.60;99.90
8965;DHT22;4517;49.020;12.066;2023-05-08T05:52:12;16.90;99.90
8965;DHT22;4517;49.020;12.066;2023-05-08T05:54:38;17.10;99.90
8965;DHT22;4517;49.020;12.066;2023-05-08T05:57:04;16.80;99.90
8965;DHT22;4517;49.020;12.066;2023-05-08T05:59:30;17.30;99.90
8965;DHT22;4517;49.020;12.066;2023-05-08T06:01:55;17.20;99.90
8965;DHT22;4517;49.020;12.066;2023-05-08T06:04:21;17.10;99.90
8965;DHT22;4517;49.020;12.066;2023-05-08T06:06:47;16.60;99.90
8965;DHT22;4517;49.020;12.066;2023-05-08T06:09:12;16.10;99.90
8965;DHT22;4517;49.020;12.066;2023-05-08T06:11:38;16.90;99.90
8965;DHT22;4517;49.020;12.066;2023-05-08T06:14:03;17.00;99.90
8965;DHT22;4517;49.020;12.066;2023-05-08T06:16:30;16.30;99.90
8965;DHT22;4517;49.020;12.066;2023-05-08T06:18:56;15.70;99.90
8965;DHT22;4517;49.020;12.066;2023-05-08T06:21:22;16.10;99.90
8965;DHT22;4517;49.020;12.066;2023-05-08T06:23:47;16.10;99.90
8965;DHT22;4517;49.020;12.066;2023-05-08T06:26:13;15.80;99.90
8965;DHT22;4517;49.020;12.066;2023-05-08T06:28:38;16.90;99.90
8965;DHT22;4517;49.020;12.066;2023-05-08T06:31:04;16.50;99.90
8965;DHT22;4517;49.020;12.066;2023-05-08T06:33:30;15.80;99.90
8965;DHT22;4517;49.020;12.066;2023-05-08T06:35:55;15.60;99.90
8965;DHT22;4517;49.020;12.066;2023-05-08T06:38:21;15.20;99.90
8965;DHT22;4517;49.020;12.066;2023-05-08T06:40:47;14.80;99.90
8965;DHT22;4517;49.020;12.066;2023-05-08T06:43:14;14.60;99.90
8965;DHT22;4517;49.020;12.066;2023-05-08T06:45:41;14.90;99.90
8965;DHT22;4517;49.020;12.066;2023-05-08T06:48:07;14.90;99.90
8965;DHT22;4517;49.020;12.066;2023-05-08T06:50:33;14.60;99.90
8965;DHT22;4517;49.020;12.066;2023-05-08T06:52:58;14.40;99.90
8965;DHT22;4517;49.020;12.066;2023-05-08T06:55:24;14.70;99.90
8965;DHT22;4517;49.020;12.066;2023-05-08T06:57:50;14.80;99.90
8965;DHT22;4517;49.020;12.066;2023-05-08T07:00:16;15.30;99.90
8965;DHT22;4517;49.020;12.066;2023-05-08T07:02:42;15.20;99.90
8965;DHT22;4517;49.020;12.066;2023-05-08T07:05:08;15.70;99.90
8965;DHT22;4517;49.020;12.066;2023-05-08T07:07:33;15.40;99.90
8965;DHT22;4517;49.020;12.066;2023-05-08T07:09:59;15.30;99.90
8965;DHT22;4517;49.020;12.066;2023-05-08T07:12:24;14.80;99.90
8965;DHT22;4517;49.020;12.066;2023-05-08T07:14:50;15.00;99.90
8965;DHT22;4517;49.020;12.066;2023-05-08T07:17:16;15.40;99.90
8965;DHT22;4517;49.020;12.066;2023-05-08T07:19:41;15.80;99.90
8965;DHT22;4517;49.020;12.066;2023-05-08T07:22:07;16.50;99.90
8965;DHT22;4517;49.020;12.066;2023-05-08T07:24:33;16.70;99.90
8965;DHT22;4517;49.020;12.066;2023-05-08T07:26:58;17.30;99.90
8965;DHT22;4517;49.020;12.066;2023-05-08T07:29:27;17.40;99.90
8965;DHT22;4517;49.020;12.066;2023-05-08T07:31:53;17.50;99.90
8965;DHT22;4517;49.020;12.066;2023-05-08T07:34:18;17.20;99.90
8965;DHT22;4517;49.020;12.066;2023-05-08T07:36:44;17.10;99.90
8965;DHT22;4517;49.020;12.066;2023-05-08T07:39:09;17.10;99.90
8965;DHT22;4517;49.020;12.066;2023-05-08T07:41:35;17.00;99.90
8965;DHT22;4517;49.020;12.066;2023-05-08T07:44:01;16.50;99.90
8965;DHT22;4517;49.020;12.066;2023-05-08T07:46:27;16.10;99.90
8965;DHT22;4517;49.020;12.066;2023-05-08T07:48:53;16.20;99.90
8965;DHT22;4517;49.020;12.066;2023-05-08T07:51:19;16.50;99.90
8965;DHT22;4517;49.020;12.066;2023-05-08T07:53:44;16.40;99.90
8965;DHT22;4517;49.020;12.066;2023-05-08T07:56:10;16.60;99.90
8965;DHT22;4517;49.020;12.066;2023-05-08T07:58:36;16.50;99.90
8965;DHT22;4517;49.020;12.066;2023-05-08T08:01:01;16.60;99.90
8965;DHT22;4517;49.020;12.066;2023-05-08T08:03:27;16.70;99.90
8965;DHT22;4517;49.020;12.066;2023-05-08T08:05:53;16.80;99.90
8965;DHT22;4517;49.020;12.066;2023-05-08T08:08:19;16.90;99.90
8965;DHT22;4517;49.020;12.066;2023-05-08T08:10:45;17.10;99.90
8965;DHT22;4517;49.020;12.066;2023-05-08T08:13:11;17.30;99.90
8965;DHT22;4517;49.020;12.066;2023-05-08T08:15:37;17.50;99.90
8965;DHT22;4517;49.020;12.066;2023-05-08T08:18:02;17.30;99.90
8965;DHT22;4517;49.020;12.066;2023-05-08T08:20:28;17.50;99.90
8965;DHT22;4517;49.020;12.066;2023-05-08T08:22:53;16.70;99.90
8965;DHT22;4517;49.020;12.066;2023-05-08T08:25:19;16.50;99.90
8965;DHT22;4517;49.020;12.066;2023-05-08T08:27:45;16.90;99.90
8965;DHT22;4517;49.020;12.066;2023-05-08T08:30:11;17.20;99.90
8965;DHT22;4517;49.020;12.066;2023-05-08T08:32:36;17.20;99.90
8965;DHT22;4517;49.020;12.066;2023-05-08T08:35:02;17.20;99.90
8965;DHT22;4517;49.020;12.066;2023-05-08T08:37:28;17.40;99.90
8965;DHT22;4517;49.020;12.066;2023-05-08T08:39:53;17.70;99.90
8965;DHT22;4517;49.020;12.066;2023-05-08T08:42:19;17.60;99.90
8965;DHT22;4517;49.020;12.066;2023-05-08T08:44:44;17.60;99.90
8965;DHT22;4517;49.020;12.066;2023-05-08T08:47:10;17.60;99.90
8965;DHT22;4517;49.020;12.066;2023-05-08T08:49:48;17.20;99.90
8965;DHT22;4517;49.020;12.066;2023-05-08T08:54:48;17.30;99.90
8965;DHT22;4517;49.020;12.066;2023-05-08T08:57:15;16.90;99.90
8965;DHT22;4517;49.020;12.066;2023-05-08T08:59:41;17.30;99.90
8965;DHT22;4517;49.020;12.066;2023-05-08T09:02:11;17.50;99.90
8965;DHT22;4517;49.020;12.066;2023-05-08T09:04:38;17.50;99.90
8965;DHT22;4517;49.020;12.066;2023-05-08T09:07:04;17.80;99.90
8965;DHT22;4517;49.020;12.066;2023-05-08T09:09:31;18.00;99.90
8965;DHT22;4517;49.020;12.066;2023-05-08T09:11:58;17.10;99.90
8965;DHT22;4517;49.020;12.066;2023-05-08T09:14:25;16.40;99.90
8965;DHT22;4517;49.020;12.066;2023-05-08T09:16:53;16.20;99.90
8965;DHT22;4517;49.020;12.066;2023-05-08T09:19:20;16.20;99.90
8965;DHT22;4517;49.020;12.066;2023-05-08T09:21:46;16.60;99.90
8965;DHT22;4517;49.020;12.066;2023-05-08T09:24:12;17.00;99.90
8965;DHT22;4517;49.020;12.066;2023-05-08T09:26:39;17.20;99.90
8965;DHT22;4517;49.020;12.066;2023-05-08T09:31:40;17.70;99.90
8965;DHT22;4517;49.020;12.066;2023-05-08T09:34:07;17.40;99.90
8965;DHT22;4517;49.020;12.066;2023-05-08T09:36:33;17.50;99.90
8965;DHT22;4517;49.020;12.066;2023-05-08T09:39:00;17.90;99.90
8965;DHT22;4517;49.020;12.066;2023-05-08T09:41:26;17.90;99.90
8965;DHT22;4517;49.020;12.066;2023-05-08T09:44:05;18.10;99.90
8965;DHT22;4517;49.020;12.066;2023-05-08T09:46:32;18.00;99.90
8965;DHT22;4517;49.020;12.066;2023-05-08T09:49:02;17.50;99.90
8965;DHT22;4517;49.020;12.066;2023-05-08T09:51:29;16.80;99.90
8965;DHT22;4517;49.020;12.066;2023-05-08T09:53:56;17.20;99.90
8965;DHT22;4517;49.020;12.066;2023-05-08T09:56:37;17.00;99.90
8965;DHT22;4517;49.020;12.066;2023-05-08T09:59:25;17.20;99.90
8965;DHT22;4517;49.020;12.066;2023-05-08T10:01:51;17.40;99.90
8965;DHT22;4517;49.020;12.066;2023-05-08T10:04:17;17.20;99.90
8965;DHT22;4517;49.020;12.066;2023-05-08T10:06:43;17.20;99.90
8965;DHT22;4517;49.020;12.066;2023-05-08T10:09:21;16.90;99.90
8965;DHT22;4517;49.020;12.066;2023-05-08T10:11:50;16.80;99.90
8965;DHT22;4517;49.020;12.066;2023-05-08T10:14:17;17.20;99.90
8965;DHT22;4517;49.020;12.066;2023-05-08T10:16:44;17.40;99.90
8965;DHT22;4517;49.020;12.066;2023-05-08T10:19:15;17.40;99.90
8965;DHT22;4517;49.020;12.066;2023-05-08T10:21:52;18.20;99.90
8965;DHT22;4517;49.020;12.066;2023-05-08T10:24:40;18.60;99.90
8965;DHT22;4517;49.020;12.066;2023-05-08T10:29:51;19.40;99.90
8965;DHT22;4517;49.020;12.066;2023-05-08T10:32:19;19.20;99.90
8965;DHT22;4517;49.020;12.066;2023-05-08T10:34:50;18.40;99.90
8965;DHT22;4517;49.020;12.066;2023-05-08T10:37:16;18.50;99.90
8965;DHT22;4517;49.020;12.066;2023-05-08T10:39:43;19.10;99.90
8965;DHT22;4517;49.020;12.066;2023-05-08T10:42:11;19.60;99.90
8965;DHT22;4517;49.020;12.066;2023-05-08T10:44:37;20.00;99.90
8965;DHT22;4517;49.020;12.066;2023-05-08T10:47:14;20.60;99.90
8965;DHT22;4517;49.020;12.066;2023-05-08T10:50:27;20.50;99.90
8965;DHT22;4517;49.020;12.066;2023-05-08T10:55:46;19.90;99.90
8965;DHT22;4517;49.020;12.066;2023-05-08T10:58:27;20.30;99.90
8965;DHT22;4517;49.020;12.066;2023-05-08T11:03:31;20.10;99.90
8965;DHT22;4517;49.020;12.066;2023-05-08T11:05:58;19.70;99.90
8965;DHT22;4517;49.020;12.066;2023-05-08T11:08:25;20.30;99.90
8965;DHT22;4517;49.020;12.066;2023-05-08T11:13:36;21.10;99.90
8965;DHT22;4517;49.020;12.066;2023-05-08T11:16:03;21.20;99.90
8965;DHT22;4517;49.020;12.066;2023-05-08T11:18:30;21.40;99.90
8965;DHT22;4517;49.020;12.066;2023-05-08T11:21:04;21.60;99.90
8965;DHT22;4517;49.020;12.066;2023-05-08T11:23:32;21.60;99.90
8965;DHT22;4517;49.020;12.066;2023-05-08T11:26:00;21.20;99.90
8965;DHT22;4517;49.020;12.066;2023-05-08T11:28:26;21.10;99.90
8965;DHT22;4517;49.020;12.066;2023-05-08T11:30:53;21.40;99.90
8965;DHT22;4517;49.020;12.066;2023-05-08T11:33:20;21.40;99.90
8965;DHT22;4517;49.020;12.066;2023-05-08T11:38:18;21.50;99.90
8965;DHT22;4517;49.020;12.066;2023-05-08T11:41:01;21.40;99.90
8965;DHT22;4517;49.020;12.066;2023-05-08T11:46:13;21.40;99.90
8965;DHT22;4517;49.020;12.066;2023-05-08T11:48:39;21.50;99.90
8965;DHT22;4517;49.020;12.066;2023-05-08T11:51:05;21.40;99.90
8965;DHT22;4517;49.020;12.066;2023-05-08T11:53:31;21.60;99.90
8965;DHT22;4517;49.020;12.066;2023-05-08T11:56:00;21.50;99.90
8965;DHT22;4517;49.020;12.066;2023-05-08T11:58:25;21.30;99.90
8965;DHT22;4517;49.020;12.066;2023-05-08T12:00:51;21.30;99.90
8965;DHT22;4517;49.020;12.066;2023-05-08T12:03:18;21.20;99.90
8965;DHT22;4517;49.020;12.066;2023-05-08T12:05:45;21.50;99.90
8965;DHT22;4517;49.020;12.066;2023-05-08T12:08:11;21.60;99.90
8965;DHT22;4517;49.020;12.066;2023-05-08T12:10:48;21.70;99.90
8965;DHT22;4517;49.020;12.066;2023-05-08T12:13:24;21.50;99.90
8965;DHT22;4517;49.020;12.066;2023-05-08T12:16:00;21.10;99.90
8965;DHT22;4517;49.020;12.066;2023-05-08T12:18:26;20.20;99.90
8965;DHT22;4517;49.020;12.066;2023-05-08T12:20:57;20.40;99.90
8965;DHT22;4517;49.020;12.066;2023-05-08T12:23:27;20.80;99.90
8965;DHT22;4517;49.020;12.066;2023-05-08T12:26:00;21.00;99.90
8965;DHT22;4517;49.020;12.066;2023-05-08T12:28:26;20.40;99.90
8965;DHT22;4517;49.020;12.066;2023-05-08T12:30:52;20.80;99.90
8965;DHT22;4517;49.020;12.066;2023-05-08T12:33:19;20.80;99.90
8965;DHT22;4517;49.020;12.066;2023-05-08T12:35:46;20.70;99.90
8965;DHT22;4517;49.020;12.066;2023-05-08T12:38:12;20.90;99.90
8965;DHT22;4517;49.020;12.066;2023-05-08T12:40:43;20.60;99.90
8965;DHT22;4517;49.020;12.066;2023-05-08T12:43:09;20.30;99.90
8965;DHT22;4517;49.020;12.066;2023-05-08T12:45:40;19.60;99.90
8965;DHT22;4517;49.020;12.066;2023-05-08T12:48:13;19.50;99.90
8965;DHT22;4517;49.020;12.066;2023-05-08T12:50:43;19.80;99.90
8965;DHT22;4517;49.020;12.066;2023-05-08T12:55:37;20.30;99.90
8965;DHT22;4517;49.020;12.066;2023-05-08T12:58:11;19.80;99.90
8965;DHT22;4517;49.020;12.066;2023-05-08T13:00:38;19.50;99.90
8965;DHT22;4517;49.020;12.066;2023-05-08T13:03:05;19.50;99.90
8965;DHT22;4517;49.020;12.066;2023-05-08T13:05:32;19.50;99.90
8965;DHT22;4517;49.020;12.066;2023-05-08T13:08:02;19.90;99.90
8965;DHT22;4517;49.020;12.066;2023-05-08T13:10:52;19.70;99.90
8965;DHT22;4517;49.020;12.066;2023-05-08T13:13:19;19.90;99.90
8965;DHT22;4517;49.020;12.066;2023-05-08T13:15:45;19.90;99.90
8965;DHT22;4517;49.020;12.066;2023-05-08T13:18:11;20.10;99.90
8965;DHT22;4517;49.020;12.066;2023-05-08T13:20:37;20.00;99.90
8965;DHT22;4517;49.020;12.066;2023-05-08T13:23:03;19.50;99.90
8965;DHT22;4517;49.020;12.066;2023-05-08T13:25:30;19.10;99.90
8965;DHT22;4517;49.020;12.066;2023-05-08T13:27:56;19.00;99.90
8965;DHT22;4517;49.020;12.066;2023-05-08T13:30:22;19.10;99.90
8965;DHT22;4517;49.020;12.066;2023-05-08T13:32:48;19.10;99.90
8965;DHT22;4517;49.020;12.066;2023-05-08T13:35:14;19.00;99.90
8965;DHT22;4517;49.020;12.066;2023-05-08T13:37:39;19.00;99.90
8965;DHT22;4517;49.020;12.066;2023-05-08T13:40:06;19.00;99.90
8965;DHT22;4517;49.020;12.066;2023-05-08T13:42:31;19.00;99.90
8965;DHT22;4517;49.020;12.066;2023-05-08T13:44:57;19.30;99.90
8965;DHT22;4517;49.020;12.066;2023-05-08T13:47:22;19.20;99.90
8965;DHT22;4517;49.020;12.066;2023-05-08T13:49:48;19.10;99.90
8965;DHT22;4517;49.020;12.066;2023-05-08T13:52:15;19.00;99.90
8965;DHT22;4517;49.020;12.066;2023-05-08T13:54:40;18.60;99.90
8965;DHT22;4517;49.020;12.066;2023-05-08T13:57:06;18.50;99.90
8965;DHT22;4517;49.020;12.066;2023-05-08T13:59:32;18.60;99.90
8965;DHT22;4517;49.020;12.066;2023-05-08T14:01:58;18.60;99.90
8965;DHT22;4517;49.020;12.066;2023-05-08T14:04:24;18.90;99.90
8965;DHT22;4517;49.020;12.066;2023-05-08T14:06:49;18.90;99.90
8965;DHT22;4517;49.020;12.066;2023-05-08T14:09:15;19.00;99.90
8965;DHT22;4517;49.020;12.066;2023-05-08T14:11:41;19.10;99.90
8965;DHT22;4517;49.020;12.066;2023-05-08T14:14:06;19.30;99.90
8965;DHT22;4517;49.020;12.066;2023-05-08T14:16:32;18.90;99.90
8965;DHT22;4517;49.020;12.066;2023-05-08T14:18:58;18.90;99.90
8965;DHT22;4517;49.020;12.066;2023-05-08T14:21:23;18.50;99.90
8965;DHT22;4517;49.020;12.066;2023-05-08T14:23:49;18.30;99.90
8965;DHT22;4517;49.020;12.066;2023-05-08T14:26:14;18.50;99.90
8965;DHT22;4517;49.020;12.066;2023-05-08T14:28:40;18.40;99.90
8965;DHT22;4517;49.020;12.066;2023-05-08T14:31:06;18.50;99.90
8965;DHT22;4517;49.020;12.066;2023-05-08T14:33:31;18.70;99.90
8965;DHT22;4517;49.020;12.066;2023-05-08T14:35:57;18.70;99.90
8965;DHT22;4517;49.020;12.066;2023-05-08T14:38:22;18.30;99.90
8965;DHT22;4517;49.020;12.066;2023-05-08T14:40:49;18.30;99.90
8965;DHT22;4517;49.020;12.066;2023-05-08T14:43:15;18.30;99.90
8965;DHT22;4517;49.020;12.066;2023-05-08T14:45:41;18.30;99.90
8965;DHT22;4517;49.020;12.066;2023-05-08T14:48:06;18.40;99.90
8965;DHT22;4517;49.020;12.066;2023-05-08T14:50:32;18.40;99.90
8965;DHT22;4517;49.020;12.066;2023-05-08T14:52:58;18.50;99.90
8965;DHT22;4517;49.020;12.066;2023-05-08T14:55:23;18.40;99.90
8965;DHT22;4517;49.020;12.066;2023-05-08T14:57:49;18.30;99.90
8965;DHT22;4517;49.020;12.066;2023-05-08T15:00:15;18.30;99.90
8965;DHT22;4517;49.020;12.066;2023-05-08T15:02:42;18.30;99.90
8965;DHT22;4517;49.020;12.066;2023-05-08T15:05:08;18.70;99.90
8965;DHT22;4517;49.020;12.066;2023-05-08T15:07:34;18.50;99.90
8965;DHT22;4517;49.020;12.066;2023-05-08T15:09:59;18.50;99.90
8965;DHT22;4517;49.020;12.066;2023-05-08T15:12:25;18.70;99.90
8965;DHT22;4517;49.020;12.066;2023-05-08T15:14:51;18.70;99.90
8965;DHT22;4517;49.020;12.066;2023-05-08T15:17:17;18.40;99.90
8965;DHT22;4517;49.020;12.066;2023-05-08T15:19:42;18.40;99.90
8965;DHT22;4517;49.020;12.066;2023-05-08T15:22:10;18.30;99.90
8965;DHT22;4517;49.020;12.066;2023-05-08T15:24:36;18.30;99.90
8965;DHT22;4517;49.020;12.066;2023-05-08T15:27:02;18.20;99.90
8965;DHT22;4517;49.020;12.066;2023-05-08T15:29:27;18.10;99.90
8965;DHT22;4517;49.020;12.066;2023-05-08T15:31:53;17.90;99.90
8965;DHT22;4517;49.020;12.066;2023-05-08T15:34:18;17.80;99.90
8965;DHT22;4517;49.020;12.066;2023-05-08T15:36:44;17.90;99.90
8965;DHT22;4517;49.020;12.066;2023-05-08T15:39:09;17.80;99.90
8965;DHT22;4517;49.020;12.066;2023-05-08T15:41:35;17.90;99.90
8965;DHT22;4517;49.020;12.066;2023-05-08T15:44:02;17.90;99.90
8965;DHT22;4517;49.020;12.066;2023-05-08T15:46:27;18.00;99.90
8965;DHT22;4517;49.020;12.066;2023-05-08T15:48:53;18.00;99.90
8965;DHT22;4517;49.020;12.066;2023-05-08T15:51:18;17.80;99.90
8965;DHT22;4517;49.020;12.066;2023-05-08T15:53:45;17.70;99.90
8965;DHT22;4517;49.020;12.066;2023-05-08T15:56:10;17.70;99.90
8965;DHT22;4517;49.020;12.066;2023-05-08T15:58:37;17.70;99.90
8965;DHT22;4517;49.020;12.066;2023-05-08T16:01:04;17.40;99.90
8965;DHT22;4517;49.020;12.066;2023-05-08T16:03:30;17.50;99.90
8965;DHT22;4517;49.020;12.066;2023-05-08T16:05:55;17.50;99.90
8965;DHT22;4517;49.020;12.066;2023-05-08T16:08:21;17.40;99.90
8965;DHT22;4517;49.020;12.066;2023-05-08T16:10:47;17.40;99.90
8965;DHT22;4517;49.020;12.066;2023-05-08T16:13:13;17.40;99.90
8965;DHT22;4517;49.020;12.066;2023-05-08T16:15:40;17.40;99.90
8965;DHT22;4517;49.020;12.066;2023-05-08T16:18:06;17.30;99.90
8965;DHT22;4517;49.020;12.066;2023-05-08T16:20:41;17.40;99.90
8965;DHT22;4517;49.020;12.066;2023-05-08T16:23:11;17.50;99.90
8965;DHT22;4517;49.020;12.066;2023-05-08T16:25:39;17.20;99.90
8965;DHT22;4517;49.020;12.066;2023-05-08T16:28:05;17.10;99.90
8965;DHT22;4517;49.020;12.066;2023-05-08T16:30:31;17.10;99.90
8965;DHT22;4517;49.020;12.066;2023-05-08T16:32:57;17.10;99.90
8965;DHT22;4517;49.020;12.066;2023-05-08T16:35:24;17.10;99.90
8965;DHT22;4517;49.020;12.066;2023-05-08T16:37:50;17.00;99.90
8965;DHT22;4517;49.020;12.066;2023-05-08T16:40:17;17.10;99.90